Palace, Missouri
Current Conditions -  °F | °C
As of 1:58 AM on Thursday 29 Jan 2015 (Local Time) from KTBN Reporting Station
Clear Clear  
Wind Chill: 53°   Ceiling: Unl
Heat Index: 53°   Visibility: 10mi
Dew Point: 42°   Wind: 6mph
Humidity: 66%   Direction: 230°SW
Pressure: 29.83"   Gusts: 16mph
Location:  37.492°N, 92.1844°W
Report Text: KTBN 290758Z AUTO 23005G14KT 10SM CLR 12/05 A2983 RMK AO2 SLP102 T01160054
Loading
Personal Weather Stations






























Interactive Weather Map New forecast layout! Learn more

10-Day Weather Forecast

Advertisements
Track Severe Weather on mobile